Time;durP1;ratioP1;P1;durP2;ratioP2;P2;SDS_P1;SDS_P2;PMS_P1;PMS_P2;Temp;Humidity;BMP_temperature;BMP_pressure;BME280_temperature;BME280_humidity;BME280_pressure;Samples;Min_cycle;Max_cycle;Signal;HPM_P1;HPM_P2
2022/03/08 00:00:49;;;;;;;25.92;15.77;;;0.70;99.90;;;;;;2055192;28;20027;-71
2022/03/08 00:01:49;;;;;;;24.52;14.77;;;0.70;99.90;;;;;;2057381;28;20549;-71
2022/03/08 00:02:50;;;;;;;24.35;15.10;;;0.70;99.90;;;;;;2063619;28;20112;-70
2022/03/08 00:03:51;;;;;;;24.33;15.50;;;0.70;99.90;;;;;;2063905;28;20034;-69
2022/03/08 00:04:55;;;;;;;23.95;14.77;;;0.70;99.90;;;;;;2065456;28;20112;-69
2022/03/08 00:05:56;;;;;;;24.95;15.20;;;0.70;99.90;;;;;;2055296;28;20035;-69
2022/03/08 00:06:56;;;;;;;23.50;15.07;;;0.60;99.90;;;;;;2063163;28;20049;-68
2022/03/08 00:07:58;;;;;;;23.02;15.10;;;0.60;99.90;;;;;;2063806;28;20026;-68
2022/03/08 00:08:59;;;;;;;22.63;14.73;;;0.60;99.90;;;;;;2063221;28;20061;-70
2022/03/08 00:10:00;;;;;;;22.85;15.02;;;0.60;99.90;;;;;;2054631;28;20026;-70
2022/03/08 00:11:03;;;;;;;24.73;15.52;;;0.60;99.90;;;;;;2063012;28;20034;-71
2022/03/08 00:12:04;;;;;;;26.00;15.63;;;0.50;99.90;;;;;;2063784;28;20028;-70
2022/03/08 00:13:05;;;;;;;26.00;15.20;;;0.50;99.90;;;;;;2063733;28;20465;-70
2022/03/08 00:14:05;;;;;;;26.88;16.00;;;0.50;99.90;;;;;;2063114;28;20084;-70
2022/03/08 00:15:11;;;;;;;26.42;15.60;;;0.50;99.90;;;;;;2055069;28;20528;-70
2022/03/08 00:16:12;;;;;;;26.60;15.95;;;0.50;99.90;;;;;;2063326;28;20034;-70
2022/03/08 00:17:12;;;;;;;26.48;16.13;;;0.50;99.90;;;;;;2063840;28;20026;-70
2022/03/08 00:18:13;;;;;;;26.33;16.13;;;0.50;99.90;;;;;;2063178;28;20109;-70
2022/03/08 00:19:14;;;;;;;29.30;16.83;;;0.50;99.90;;;;;;2055116;28;20026;-69
2022/03/08 00:20:18;;;;;;;27.92;16.15;;;0.50;99.90;;;;;;2062635;28;20879;-70
2022/03/08 00:21:19;;;;;;;26.88;15.65;;;0.50;99.90;;;;;;2070922;28;20026;-70
2022/03/08 00:22:19;;;;;;;27.33;16.13;;;0.50;99.90;;;;;;2063710;28;20109;-71
2022/03/08 00:23:20;;;;;;;27.50;16.48;;;0.50;99.90;;;;;;2063597;28;20149;-70
2022/03/08 00:24:21;;;;;;;28.25;16.33;;;0.40;99.90;;;;;;2063645;28;20026;-69
2022/03/08 00:25:21;;;;;;;29.55;16.70;;;0.40;99.90;;;;;;2063517;28;20114;-72
2022/03/08 00:26:23;;;;;;;29.65;17.15;;;0.40;99.90;;;;;;2063379;28;20490;-69
2022/03/08 00:27:23;;;;;;;31.88;17.73;;;0.40;99.90;;;;;;2063648;28;20398;-69
2022/03/08 00:28:24;;;;;;;33.90;18.23;;;0.40;99.90;;;;;;2062843;28;20027;-70
2022/03/08 00:29:25;;;;;;;33.28;17.98;;;0.30;99.90;;;;;;2063052;28;20038;-70
2022/03/08 00:30:27;;;;;;;31.60;17.50;;;0.30;99.90;;;;;;2063046;28;20030;-71
2022/03/08 00:31:29;;;;;;;33.35;18.52;;;0.30;99.90;;;;;;2063698;28;20586;-70
2022/03/08 00:32:30;;;;;;;33.85;18.23;;;0.30;99.90;;;;;;2062804;28;20054;-70
2022/03/08 00:33:30;;;;;;;32.80;18.38;;;0.30;99.90;;;;;;2062721;28;20089;-70
2022/03/08 00:34:31;;;;;;;29.95;17.52;;;0.20;99.90;;;;;;2054807;28;20518;-70
2022/03/08 00:35:32;;;;;;;35.53;17.98;;;0.20;99.90;;;;;;2054844;28;20114;-70
2022/03/08 00:36:32;;;;;;;30.35;17.67;;;0.20;99.90;;;;;;2062976;28;20489;-70
2022/03/08 00:37:33;;;;;;;30.50;17.85;;;0.20;99.90;;;;;;2062944;28;20034;-70
2022/03/08 00:38:34;;;;;;;30.42;17.73;;;0.20;99.90;;;;;;2062793;28;20026;-73
2022/03/08 00:39:34;;;;;;;31.98;17.90;;;0.20;99.90;;;;;;2062679;28;20443;-69
2022/03/08 00:40:35;;;;;;;29.02;17.90;;;0.20;99.90;;;;;;2061964;28;20036;-71
2022/03/08 00:41:37;;;;;;;33.50;17.98;;;0.10;99.90;;;;;;2063536;28;20031;-69
2022/03/08 00:42:38;;;;;;;28.33;17.10;;;0.10;99.90;;;;;;2062647;28;20490;-68
2022/03/08 00:43:38;;;;;;;30.23;17.73;;;0.10;99.90;;;;;;2062880;28;20042;-70
2022/03/08 00:44:40;;;;;;;30.27;17.60;;;0.10;99.90;;;;;;2062788;28;20034;-69
2022/03/08 00:45:41;;;;;;;29.63;18.00;;;0.10;99.90;;;;;;2055018;28;20680;-70
2022/03/08 00:46:42;;;;;;;31.58;17.95;;;0.10;99.90;;;;;;2062719;28;20026;-69
2022/03/08 00:47:43;;;;;;;29.67;18.02;;;0.00;99.90;;;;;;2070922;28;20044;-69
2022/03/08 00:48:44;;;;;;;30.92;17.45;;;0.10;99.90;;;;;;2062635;28;20782;-69
2022/03/08 00:49:44;;;;;;;28.83;17.67;;;0.00;99.90;;;;;;2054466;28;20041;-68
2022/03/08 00:50:45;;;;;;;28.50;16.95;;;0.00;99.90;;;;;;2054304;28;20041;-70
2022/03/08 00:51:47;;;;;;;30.77;17.60;;;0.00;99.90;;;;;;2062904;28;20050;-70
2022/03/08 00:52:49;;;;;;;28.88;17.15;;;0.00;99.90;;;;;;2062942;28;20045;-68
2022/03/08 00:53:51;;;;;;;29.95;17.55;;;0.00;99.90;;;;;;2062883;28;20035;-70
2022/03/08 00:54:51;;;;;;;32.72;18.42;;;0.00;99.90;;;;;;2063472;28;20030;-71
2022/03/08 00:55:52;;;;;;;31.30;18.50;;;0.00;99.90;;;;;;2054804;28;20107;-69
2022/03/08 00:56:53;;;;;;;30.05;17.88;;;0.00;99.90;;;;;;2046654;29;20077;-69
2022/03/08 00:57:54;;;;;;;28.83;17.17;;;0.00;99.90;;;;;;2062866;28;20121;-69
2022/03/08 00:58:55;;;;;;;28.63;17.77;;;0.00;99.90;;;;;;2062517;28;20061;-70
2022/03/08 00:59:56;;;;;;;28.35;17.88;;;0.00;99.90;;;;;;2054603;28;20043;-70
2022/03/08 01:00:57;;;;;;;29.05;18.17;;;-0.10;99.90;;;;;;2054588;28;20647;-69
2022/03/08 01:01:58;;;;;;;28.90;17.30;;;-0.10;99.90;;;;;;2062716;28;20030;-69
2022/03/08 01:02:59;;;;;;;28.77;17.45;;;-0.10;99.90;;;;;;2054525;28;20173;-68
2022/03/08 01:03:59;;;;;;;29.23;17.23;;;-0.10;99.90;;;;;;2046543;29;20038;-69
2022/03/08 01:05:00;;;;;;;27.50;16.85;;;-0.10;99.90;;;;;;2062744;28;20041;-70
2022/03/08 01:06:00;;;;;;;28.48;17.17;;;-0.10;99.90;;;;;;2063457;28;20034;-70
2022/03/08 01:07:01;;;;;;;28.60;16.90;;;-0.20;99.90;;;;;;2063302;28;20046;-70
2022/03/08 01:08:03;;;;;;;29.75;17.70;;;-0.20;99.90;;;;;;2062360;28;20045;-69
2022/03/08 01:09:04;;;;;;;30.88;17.20;;;-0.20;99.90;;;;;;2062675;28;20037;-70
2022/03/08 01:10:08;;;;;;;28.17;17.30;;;-0.20;99.90;;;;;;2062893;28;20385;-69
2022/03/08 01:11:09;;;;;;;35.97;18.52;;;-0.20;99.90;;;;;;2063308;28;20064;-70
2022/03/08 01:12:10;;;;;;;30.88;17.83;;;-0.20;99.90;;;;;;2062674;28;20026;-70
2022/03/08 01:13:10;;;;;;;30.95;17.30;;;-0.20;99.90;;;;;;2062710;28;20485;-70
2022/03/08 01:14:11;;;;;;;35.67;19.73;;;-0.20;99.90;;;;;;2062552;28;20030;-67
2022/03/08 01:15:13;;;;;;;34.55;19.23;;;-0.20;99.90;;;;;;2062590;28;20076;-69
2022/03/08 01:16:15;;;;;;;40.53;19.85;;;-0.20;99.90;;;;;;2062678;28;20102;-69
2022/03/08 01:17:16;;;;;;;39.75;20.08;;;-0.20;99.90;;;;;;2063355;28;20130;-70
2022/03/08 01:18:17;;;;;;;37.67;20.40;;;-0.20;99.90;;;;;;2063301;28;20045;-70
2022/03/08 01:19:17;;;;;;;40.13;20.58;;;-0.30;99.90;;;;;;2063150;28;20026;-69
2022/03/08 01:20:19;;;;;;;39.45;19.83;;;-0.20;99.90;;;;;;2062036;28;20724;-69
2022/03/08 01:21:20;;;;;;;42.22;20.85;;;-0.20;99.90;;;;;;2054629;28;20554;-69
2022/03/08 01:22:20;;;;;;;41.08;19.63;;;-0.20;99.90;;;;;;2062600;28;20114;-70
2022/03/08 01:23:21;;;;;;;39.63;20.17;;;-0.20;99.90;;;;;;2054461;28;20031;-70
2022/03/08 01:24:22;;;;;;;43.53;20.67;;;-0.30;99.90;;;;;;2054520;28;20034;-70
2022/03/08 01:25:23;;;;;;;37.65;19.65;;;-0.30;99.90;;;;;;2063234;28;20085;-69
2022/03/08 01:26:26;;;;;;;41.67;19.95;;;-0.30;99.90;;;;;;2062665;28;20067;-70
2022/03/08 01:27:30;;;;;;;43.60;20.35;;;-0.30;99.90;;;;;;2063018;28;20065;-70
2022/03/08 01:28:31;;;;;;;40.67;20.15;;;-0.30;99.90;;;;;;2062548;28;20046;-70
2022/03/08 01:29:32;;;;;;;38.05;19.00;;;-0.40;99.90;;;;;;2054227;28;20038;-68
2022/03/08 01:30:34;;;;;;;34.42;18.13;;;-0.30;99.90;;;;;;2054136;28;20042;-69
2022/03/08 01:31:34;;;;;;;33.90;18.05;;;-0.30;99.90;;;;;;2063640;28;20034;-70
2022/03/08 01:32:35;;;;;;;34.60;17.83;;;-0.40;99.90;;;;;;2062819;28;20651;-69
2022/03/08 01:33:36;;;;;;;34.58;17.48;;;-0.40;99.90;;;;;;2063039;28;20034;-70
2022/03/08 01:34:36;;;;;;;33.63;17.42;;;-0.40;99.90;;;;;;2054944;28;20065;-70
2022/03/08 01:35:37;;;;;;;32.30;17.15;;;-0.40;99.90;;;;;;2054989;28;20647;-70
2022/03/08 01:36:38;;;;;;;32.67;17.08;;;-0.40;99.90;;;;;;2062788;28;20026;-69
2022/03/08 01:37:42;;;;;;;37.78;18.20;;;-0.40;99.90;;;;;;2055404;28;20038;-69
2022/03/08 01:38:43;;;;;;;34.03;18.08;;;-0.40;99.90;;;;;;2064839;28;20031;-70
2022/03/08 01:39:44;;;;;;;38.08;18.02;;;-0.40;99.90;;;;;;2065931;28;20114;-70
2022/03/08 01:40:44;;;;;;;34.50;16.90;;;-0.40;99.90;;;;;;2065101;28;20035;-71
2022/03/08 01:41:45;;;;;;;34.53;17.52;;;-0.40;99.90;;;;;;2057492;28;20526;-70
2022/03/08 01:42:49;;;;;;;36.40;17.27;;;-0.50;99.90;;;;;;2065088;28;20035;-71
2022/03/08 01:43:51;;;;;;;34.72;17.63;;;-0.50;99.90;;;;;;2057798;28;20790;-70
2022/03/08 01:44:52;;;;;;;34.50;16.63;;;-0.50;99.90;;;;;;2049448;28;20035;-70
2022/03/08 01:45:53;;;;;;;34.95;16.65;;;-0.50;99.90;;;;;;2056746;28;20027;-69
2022/03/08 01:46:54;;;;;;;31.70;16.45;;;-0.50;99.90;;;;;;2065963;28;20034;-68
2022/03/08 01:47:55;;;;;;;35.33;17.10;;;-0.50;99.90;;;;;;2063418;28;20076;-69
2022/03/08 01:48:55;;;;;;;39.40;17.55;;;-0.50;99.90;;;;;;2063073;28;20026;-69
2022/03/08 01:49:56;;;;;;;36.50;16.75;;;-0.50;99.90;;;;;;2063027;28;20516;-70
2022/03/08 01:50:58;;;;;;;34.30;16.73;;;-0.50;99.90;;;;;;2046971;28;20589;-70
2022/03/08 01:51:59;;;;;;;33.00;16.20;;;-0.50;99.90;;;;;;2055288;28;20402;-69
2022/03/08 01:53:00;;;;;;;31.48;15.40;;;-0.60;99.90;;;;;;2064504;28;20026;-68
2022/03/08 01:54:01;;;;;;;29.60;14.98;;;-0.50;99.90;;;;;;2064549;28;20125;-68
2022/03/08 01:55:02;;;;;;;29.77;15.38;;;-0.50;99.90;;;;;;2064656;28;20041;-68
2022/03/08 01:56:03;;;;;;;28.08;14.73;;;-0.60;99.90;;;;;;2065083;28;20038;-69
2022/03/08 01:57:05;;;;;;;26.55;14.65;;;-0.60;99.90;;;;;;2065093;28;20030;-69
2022/03/08 01:58:05;;;;;;;27.00;14.32;;;-0.60;99.90;;;;;;2064930;28;20046;-69
2022/03/08 01:59:06;;;;;;;26.55;14.82;;;-0.60;99.90;;;;;;2064218;28;20644;-69
2022/03/08 02:00:11;;;;;;;25.13;13.68;;;-0.60;99.90;;;;;;2064001;28;20055;-68
2022/03/08 02:01:15;;;;;;;26.73;14.05;;;-0.60;99.90;;;;;;2064119;28;20429;-69
2022/03/08 02:02:15;;;;;;;27.63;14.85;;;-0.60;99.90;;;;;;2064290;28;20030;-71
2022/03/08 02:03:16;;;;;;;28.67;15.15;;;-0.70;99.90;;;;;;2064875;28;20066;-69
2022/03/08 02:04:17;;;;;;;32.63;16.08;;;-0.70;99.90;;;;;;2064927;28;20149;-70
2022/03/08 02:05:17;;;;;;;31.33;15.68;;;-0.70;99.90;;;;;;2064722;28;20647;-70
2022/03/08 02:06:18;;;;;;;31.17;15.75;;;-0.70;99.90;;;;;;2064776;28;20034;-71
2022/03/08 02:07:19;;;;;;;26.40;14.43;;;-0.70;99.90;;;;;;2064824;28;20057;-70
2022/03/08 02:08:19;;;;;;;26.20;14.55;;;-0.70;99.90;;;;;;2064898;28;20108;-70
2022/03/08 02:09:20;;;;;;;25.27;14.43;;;-0.70;99.90;;;;;;2064824;28;20038;-71
2022/03/08 02:10:21;;;;;;;25.17;14.20;;;-0.70;99.90;;;;;;2064328;28;20129;-69
2022/03/08 02:11:22;;;;;;;26.15;14.27;;;-0.70;99.90;;;;;;2064668;28;20077;-70
2022/03/08 02:12:23;;;;;;;25.30;14.27;;;-0.70;99.90;;;;;;2064804;28;20019;-70
2022/03/08 02:13:26;;;;;;;25.42;14.55;;;-0.70;99.90;;;;;;2064566;28;20026;-70
2022/03/08 02:14:27;;;;;;;21.05;13.40;;;-0.80;99.90;;;;;;2064571;28;20068;-69
2022/03/08 02:15:29;;;;;;;23.85;14.20;;;-0.80;99.90;;;;;;2063953;28;20054;-70
2022/03/08 02:16:30;;;;;;;23.77;14.32;;;-0.80;99.90;;;;;;2056130;28;20065;-71
2022/03/08 02:17:30;;;;;;;24.95;14.82;;;-0.80;99.90;;;;;;2063932;28;20540;-70
2022/03/08 02:18:31;;;;;;;25.23;14.45;;;-0.80;99.90;;;;;;2064641;28;20081;-70
2022/03/08 02:19:32;;;;;;;27.15;14.23;;;-0.80;99.90;;;;;;2064577;28;20379;-70
2022/03/08 02:20:33;;;;;;;23.55;13.88;;;-0.80;99.90;;;;;;2064123;28;20033;-71
2022/03/08 02:21:34;;;;;;;23.90;14.25;;;-0.80;99.90;;;;;;2064578;28;20037;-70
2022/03/08 02:22:36;;;;;;;25.00;14.30;;;-0.80;99.90;;;;;;2064021;28;20030;-70
2022/03/08 02:23:36;;;;;;;25.58;14.45;;;-0.80;99.90;;;;;;2063996;28;20062;-70
2022/03/08 02:24:37;;;;;;;24.23;13.90;;;-0.80;99.90;;;;;;2064580;28;20034;-70
2022/03/08 02:25:40;;;;;;;24.45;14.60;;;-0.80;99.90;;;;;;2064715;28;20093;-70
2022/03/08 02:26:41;;;;;;;24.20;13.88;;;-0.80;99.90;;;;;;2064339;28;20034;-70
2022/03/08 02:27:44;;;;;;;24.70;14.68;;;-0.80;99.90;;;;;;2064619;28;20026;-70
2022/03/08 02:28:45;;;;;;;26.00;14.65;;;-0.80;99.90;;;;;;2064756;28;20061;-69
2022/03/08 02:29:45;;;;;;;25.85;14.32;;;-0.80;99.90;;;;;;2064462;28;20034;-70
2022/03/08 02:30:46;;;;;;;24.05;14.25;;;-0.80;99.90;;;;;;2064117;28;20579;-70
2022/03/08 02:31:47;;;;;;;22.98;13.45;;;-0.80;99.90;;;;;;2063812;28;20417;-70
2022/03/08 02:32:49;;;;;;;24.92;14.23;;;-0.90;99.90;;;;;;2063967;28;20056;-71
2022/03/08 02:33:50;;;;;;;25.50;14.50;;;-0.90;99.90;;;;;;2064369;28;20676;-71
2022/03/08 02:34:50;;;;;;;24.17;14.48;;;-0.90;99.90;;;;;;2064351;28;20066;-70
2022/03/08 02:35:51;;;;;;;25.05;14.32;;;-0.90;99.90;;;;;;2064377;28;20035;-70
2022/03/08 02:37:11;;;;;;;25.75;14.50;;;-0.90;99.90;;;;;;2064182;28;20497;-69
2022/03/08 02:38:12;;;;;;;22.92;13.77;;;-0.90;99.90;;;;;;2064474;28;20728;-69
2022/03/08 02:39:13;;;;;;;24.23;14.73;;;-0.90;99.90;;;;;;2064412;28;20034;-70
2022/03/08 02:40:16;;;;;;;24.40;14.15;;;-1.00;99.90;;;;;;2064008;28;20104;-71
2022/03/08 02:41:17;;;;;;;23.20;13.80;;;-0.90;99.90;;;;;;2064427;28;20084;-70
2022/03/08 02:42:18;;;;;;;22.90;13.70;;;-0.90;99.90;;;;;;2064342;28;20034;-71
2022/03/08 02:43:18;;;;;;;21.98;13.40;;;-0.90;99.90;;;;;;2063752;28;20057;-70
2022/03/08 02:44:19;;;;;;;24.98;14.93;;;-1.00;99.90;;;;;;2063905;28;20490;-70
2022/03/08 02:45:21;;;;;;;24.13;14.30;;;-1.00;99.90;;;;;;2064412;28;20034;-70
2022/03/08 02:46:22;;;;;;;25.13;14.52;;;-0.90;99.90;;;;;;2063692;28;20038;-70
2022/03/08 02:47:22;;;;;;;28.35;15.05;;;-1.00;99.90;;;;;;2064048;28;20045;-71
2022/03/08 02:48:27;;;;;;;24.67;14.45;;;-1.00;99.90;;;;;;2064295;28;20049;-68
2022/03/08 02:49:28;;;;;;;26.02;14.98;;;-1.00;99.90;;;;;;2064336;28;20085;-70
2022/03/08 02:50:28;;;;;;;28.50;15.73;;;-1.00;99.90;;;;;;2063922;28;20088;-69
2022/03/08 02:51:29;;;;;;;26.75;14.55;;;-1.00;99.90;;;;;;2064343;28;20029;-71
2022/03/08 02:52:29;;;;;;;31.83;15.98;;;-1.00;99.90;;;;;;2064351;28;20548;-69
2022/03/08 02:53:30;;;;;;;38.65;18.17;;;-1.00;99.90;;;;;;2064440;28;20089;-70
2022/03/08 02:54:31;;;;;;;34.15;17.23;;;-1.00;99.90;;;;;;2064223;28;20030;-69
2022/03/08 02:55:34;;;;;;;40.55;18.85;;;-1.10;99.90;;;;;;2064425;28;20091;-70
2022/03/08 02:56:35;;;;;;;38.47;18.00;;;-1.00;99.90;;;;;;2064317;28;20031;-70
2022/03/08 02:57:35;;;;;;;38.47;18.55;;;-1.00;99.90;;;;;;2064266;28;20616;-71
2022/03/08 02:58:36;;;;;;;40.22;18.55;;;-1.10;99.90;;;;;;2064157;28;20112;-70
2022/03/08 02:59:37;;;;;;;35.60;17.67;;;-1.00;99.90;;;;;;2064042;28;20888;-69
2022/03/08 03:00:37;;;;;;;35.95;17.40;;;-1.10;99.90;;;;;;2063070;28;20465;-70
2022/03/08 03:01:38;;;;;;;34.78;17.55;;;-1.10;99.90;;;;;;2063727;28;20057;-70
2022/03/08 03:02:39;;;;;;;34.63;17.13;;;-1.10;99.90;;;;;;2064340;28;20393;-70
2022/03/08 03:03:39;;;;;;;33.05;16.30;;;-1.10;99.90;;;;;;2063597;28;20034;-69
2022/03/08 03:04:40;;;;;;;32.85;16.67;;;-1.10;99.90;;;;;;2063695;28;20083;-69
2022/03/08 03:05:41;;;;;;;29.92;15.95;;;-1.10;99.90;;;;;;2063442;28;20134;-70
2022/03/08 03:06:43;;;;;;;27.13;14.82;;;-1.10;99.90;;;;;;2055587;28;20461;-69
2022/03/08 03:07:44;;;;;;;31.45;15.65;;;-1.10;99.90;;;;;;2063573;28;20101;-71
2022/03/08 03:08:45;;;;;;;30.45;15.63;;;-1.10;99.90;;;;;;2064174;28;20088;-70
2022/03/08 03:09:45;;;;;;;30.10;15.55;;;-1.10;99.90;;;;;;2064017;28;20034;-70
2022/03/08 03:10:47;;;;;;;28.75;15.25;;;-1.10;99.90;;;;;;2063846;28;20038;-69
2022/03/08 03:11:47;;;;;;;26.40;15.15;;;-1.10;99.90;;;;;;2064144;28;20045;-69
2022/03/08 03:12:49;;;;;;;26.73;14.95;;;-1.20;99.90;;;;;;2064001;28;20038;-70
2022/03/08 03:13:49;;;;;;;24.90;13.98;;;-1.20;99.90;;;;;;2063316;28;20038;-70
2022/03/08 03:14:50;;;;;;;25.83;14.55;;;-1.10;99.90;;;;;;2063519;28;20097;-70
2022/03/08 03:15:51;;;;;;;24.13;14.32;;;-1.10;99.90;;;;;;2064100;28;20041;-69
2022/03/08 03:16:51;;;;;;;23.15;14.23;;;-1.20;99.90;;;;;;2064135;28;20457;-70
2022/03/08 03:17:52;;;;;;;23.58;14.65;;;-1.20;99.90;;;;;;2064030;28;20026;-68
2022/03/08 03:18:53;;;;;;;26.35;14.55;;;-1.20;99.90;;;;;;2064049;28;20489;-69
2022/03/08 03:19:54;;;;;;;26.63;15.02;;;-1.20;99.90;;;;;;2063288;28;20121;-69
2022/03/08 03:20:54;;;;;;;27.30;15.00;;;-1.20;99.90;;;;;;2063229;28;20034;-68
2022/03/08 03:21:55;;;;;;;32.38;16.23;;;-1.20;99.90;;;;;;2064185;28;20521;-69
2022/03/08 03:22:55;;;;;;;27.52;15.32;;;-1.20;99.90;;;;;;2063956;28;20494;-70
2022/03/08 03:23:56;;;;;;;30.58;15.80;;;-1.20;99.90;;;;;;2063417;28;20018;-68
2022/03/08 03:24:56;;;;;;;27.70;14.82;;;-1.20;99.90;;;;;;2063443;28;20780;-69
2022/03/08 03:25:57;;;;;;;28.75;15.65;;;-1.30;99.90;;;;;;2071529;28;20637;-69
2022/03/08 03:26:58;;;;;;;29.05;15.27;;;-1.20;99.90;;;;;;2064069;28;20113;-71
2022/03/08 03:27:58;;;;;;;28.38;15.18;;;-1.30;99.90;;;;;;2063350;28;20045;-69
2022/03/08 03:28:59;;;;;;;29.83;15.55;;;-1.30;99.90;;;;;;2063410;28;20026;-69
2022/03/08 03:29:59;;;;;;;30.08;15.48;;;-1.30;99.90;;;;;;2062812;28;20544;-70
2022/03/08 03:31:00;;;;;;;33.05;16.10;;;-1.30;99.90;;;;;;2063248;28;20057;-69
2022/03/08 03:32:00;;;;;;;31.95;16.02;;;-1.30;99.90;;;;;;2063952;28;20085;-70
2022/03/08 03:33:03;;;;;;;34.67;16.70;;;-1.30;99.90;;;;;;2063947;28;20030;-68
2022/03/08 03:34:04;;;;;;;31.83;16.13;;;-1.30;99.90;;;;;;2064154;28;20402;-70
2022/03/08 03:35:06;;;;;;;31.48;15.82;;;-1.30;99.90;;;;;;2064201;28;20037;-70
2022/03/08 03:36:06;;;;;;;29.30;15.40;;;-1.30;99.90;;;;;;2063380;28;20484;-69
2022/03/08 03:37:07;;;;;;;25.95;14.55;;;-1.30;99.90;;;;;;2063254;28;20030;-71
2022/03/08 03:38:08;;;;;;;28.33;14.63;;;-1.30;99.90;;;;;;2063972;28;20034;-70
2022/03/08 03:39:08;;;;;;;26.65;15.32;;;-1.30;99.90;;;;;;2064189;28;20050;-71
2022/03/08 03:40:10;;;;;;;28.60;15.23;;;-1.30;99.90;;;;;;2063612;28;20030;-70
2022/03/08 03:41:11;;;;;;;32.08;15.48;;;-1.30;99.90;;;;;;2064049;28;20026;-71
2022/03/08 03:42:12;;;;;;;28.48;15.00;;;-1.30;99.90;;;;;;2064023;28;20225;-70
2022/03/08 03:43:12;;;;;;;27.65;14.98;;;-1.40;99.90;;;;;;2063925;28;20700;-70
2022/03/08 03:44:13;;;;;;;30.13;15.80;;;-1.40;99.90;;;;;;2063209;28;20062;-70
2022/03/08 03:45:14;;;;;;;28.98;15.73;;;-1.30;99.90;;;;;;2063285;28;20034;-70
2022/03/08 03:46:16;;;;;;;30.75;15.75;;;-1.40;99.90;;;;;;2063850;28;20473;-70
2022/03/08 03:47:16;;;;;;;27.98;15.27;;;-1.40;99.90;;;;;;2063822;28;20759;-69
2022/03/08 03:48:17;;;;;;;27.85;15.13;;;-1.40;99.90;;;;;;2063879;28;20034;-70
2022/03/08 03:49:17;;;;;;;26.75;14.75;;;-1.40;99.90;;;;;;2064001;28;20571;-68
2022/03/08 03:50:18;;;;;;;27.17;14.93;;;-1.40;99.90;;;;;;2063206;28;20121;-69
2022/03/08 03:51:19;;;;;;;30.15;15.40;;;-1.40;99.90;;;;;;2063197;28;20039;-71
2022/03/08 03:52:20;;;;;;;26.13;14.52;;;-1.40;99.90;;;;;;2063160;28;20124;-71
2022/03/08 03:53:20;;;;;;;27.77;15.18;;;-1.40;99.90;;;;;;2063788;28;20042;-71
2022/03/08 03:54:22;;;;;;;30.45;14.90;;;-1.40;99.90;;;;;;2063130;28;20109;-71
2022/03/08 03:55:22;;;;;;;32.35;15.38;;;-1.40;99.90;;;;;;2063387;28;20038;-71
2022/03/08 03:56:23;;;;;;;31.98;15.27;;;-1.40;99.90;;;;;;2063977;28;20457;-70
2022/03/08 03:57:24;;;;;;;30.92;15.32;;;-1.40;99.90;;;;;;2063357;28;20030;-71
2022/03/08 03:58:25;;;;;;;31.35;15.82;;;-1.50;99.90;;;;;;2063630;28;20096;-69
2022/03/08 03:59:25;;;;;;;31.10;15.90;;;-1.50;99.90;;;;;;2063965;28;20026;-71
2022/03/08 04:00:26;;;;;;;33.53;16.42;;;-1.50;99.90;;;;;;2063578;28;20029;-71
2022/03/08 04:01:27;;;;;;;33.65;15.82;;;-1.50;99.90;;;;;;2063915;28;20018;-69
2022/03/08 04:02:27;;;;;;;35.47;16.73;;;-1.50;99.90;;;;;;2063907;28;20637;-71
2022/03/08 04:03:28;;;;;;;37.58;17.23;;;-1.50;99.90;;;;;;2063856;28;20466;-69
2022/03/08 04:04:28;;;;;;;38.47;17.35;;;-1.50;99.90;;;;;;2063103;28;20034;-71
2022/03/08 04:05:29;;;;;;;39.45;16.85;;;-1.50;99.90;;;;;;2063197;28;20053;-69
2022/03/08 04:06:30;;;;;;;39.85;16.88;;;-1.60;99.90;;;;;;2063889;28;20688;-69
2022/03/08 04:07:32;;;;;;;38.22;17.25;;;-1.60;99.90;;;;;;2064132;28;20509;-71
2022/03/08 04:08:32;;;;;;;33.97;16.02;;;-1.60;99.90;;;;;;2064102;28;20041;-70
2022/03/08 04:09:33;;;;;;;35.20;16.65;;;-1.60;99.90;;;;;;2064036;28;20096;-70
2022/03/08 04:10:33;;;;;;;35.25;16.25;;;-1.60;99.90;;;;;;2063384;28;20037;-69
2022/03/08 04:11:34;;;;;;;33.53;16.02;;;-1.60;99.90;;;;;;2063853;28;20026;-71
2022/03/08 04:12:34;;;;;;;30.08;15.60;;;-1.60;99.90;;;;;;2063938;28;20022;-69
2022/03/08 04:13:35;;;;;;;29.65;14.70;;;-1.60;99.90;;;;;;2064134;28;20033;-69
2022/03/08 04:14:36;;;;;;;30.85;14.77;;;-1.60;99.90;;;;;;2063702;28;20038;-70
2022/03/08 04:15:37;;;;;;;30.65;15.20;;;-1.60;99.90;;;;;;2063587;28;20026;-70
2022/03/08 04:16:37;;;;;;;29.95;15.35;;;-1.60;99.90;;;;;;2063261;28;20034;-69
2022/03/08 04:17:38;;;;;;;30.63;15.63;;;-1.70;99.90;;;;;;2063171;28;20098;-71
2022/03/08 04:18:39;;;;;;;29.20;14.50;;;-1.60;99.90;;;;;;2063152;28;20026;-70
2022/03/08 04:19:40;;;;;;;28.98;14.88;;;-1.60;99.90;;;;;;2063014;28;20105;-70
2022/03/08 04:20:41;;;;;;;28.73;15.05;;;-1.60;99.90;;;;;;2062433;28;20026;-70
2022/03/08 04:21:41;;;;;;;24.92;14.20;;;-1.60;99.90;;;;;;2062925;28;20034;-70
2022/03/08 04:22:42;;;;;;;25.88;14.27;;;-1.60;99.90;;;;;;2063606;28;20028;-69
2022/03/08 04:23:43;;;;;;;26.10;14.07;;;-1.60;99.90;;;;;;2063566;28;20030;-69
2022/03/08 04:24:43;;;;;;;24.65;14.40;;;-1.60;99.90;;;;;;2063688;28;20684;-70
2022/03/08 04:25:44;;;;;;;24.20;13.82;;;-1.60;99.90;;;;;;2063650;28;20034;-70
2022/03/08 04:26:44;;;;;;;23.10;13.60;;;-1.60;99.90;;;;;;2063583;28;20026;-70
2022/03/08 04:27:45;;;;;;;27.27;13.80;;;-1.60;99.90;;;;;;2063001;28;20782;-70
2022/03/08 04:28:46;;;;;;;24.73;13.82;;;-1.60;99.90;;;;;;2054677;28;20614;-70
2022/03/08 04:29:46;;;;;;;27.58;14.38;;;-1.60;99.90;;;;;;2062934;28;20038;-70
2022/03/08 04:30:47;;;;;;;25.25;14.23;;;-1.60;99.90;;;;;;2063164;28;20130;-69
2022/03/08 04:31:47;;;;;;;24.27;14.32;;;-1.60;99.90;;;;;;2063578;28;20031;-70
2022/03/08 04:32:50;;;;;;;24.23;14.25;;;-1.60;99.90;;;;;;2063020;28;20494;-70
2022/03/08 04:33:51;;;;;;;25.55;14.85;;;-1.60;99.90;;;;;;2062825;28;20050;-69
2022/03/08 04:34:51;;;;;;;25.48;14.85;;;-1.60;99.90;;;;;;2063452;28;20375;-69
2022/03/08 04:35:52;;;;;;;27.40;14.85;;;-1.60;99.90;;;;;;2063752;28;20030;-70
2022/03/08 04:36:53;;;;;;;26.40;14.30;;;-1.70;99.90;;;;;;2063530;28;20030;-70
2022/03/08 04:37:53;;;;;;;25.10;14.88;;;-1.70;99.90;;;;;;2063551;28;20034;-70
2022/03/08 04:38:54;;;;;;;25.42;14.32;;;-1.70;99.90;;;;;;2063453;28;20111;-70
2022/03/08 04:39:54;;;;;;;25.50;14.07;;;-1.70;99.90;;;;;;2063422;28;20807;-70
2022/03/08 04:40:55;;;;;;;23.17;13.90;;;-1.70;99.90;;;;;;2062983;28;20529;-69
2022/03/08 04:41:55;;;;;;;21.50;13.60;;;-1.70;99.90;;;;;;2063344;28;20390;-70
2022/03/08 04:42:56;;;;;;;24.38;13.73;;;-1.70;99.90;;;;;;2063239;28;20458;-69
2022/03/08 04:43:57;;;;;;;23.10;14.30;;;-1.70;99.90;;;;;;2062786;28;20077;-70
2022/03/08 04:44:58;;;;;;;24.45;14.55;;;-1.70;99.90;;;;;;2062735;28;20061;-68
2022/03/08 04:45:58;;;;;;;23.63;13.68;;;-1.70;99.90;;;;;;2063498;28;20037;-69
2022/03/08 04:46:59;;;;;;;25.35;14.25;;;-1.70;99.90;;;;;;2062745;28;20080;-68
2022/03/08 04:48:00;;;;;;;25.58;14.27;;;-1.70;99.90;;;;;;2054661;28;20027;-69
2022/03/08 04:49:00;;;;;;;23.40;14.25;;;-1.70;99.90;;;;;;2062722;28;20034;-68
2022/03/08 04:50:06;;;;;;;24.13;14.00;;;-1.70;99.90;;;;;;2062298;28;20029;-70
2022/03/08 04:51:06;;;;;;;23.63;13.75;;;-1.70;99.90;;;;;;2062779;28;20030;-69
2022/03/08 04:52:07;;;;;;;25.40;14.05;;;-1.70;99.90;;;;;;2062610;28;20459;-68
2022/03/08 04:53:08;;;;;;;22.98;13.68;;;-1.80;99.90;;;;;;2062687;28;20032;-69
2022/03/08 04:54:08;;;;;;;26.48;14.68;;;-1.80;99.90;;;;;;2063135;28;20061;-69
2022/03/08 04:55:10;;;;;;;24.15;13.82;;;-1.80;99.90;;;;;;2063234;28;20034;-70
2022/03/08 04:56:11;;;;;;;23.58;14.13;;;-1.80;99.90;;;;;;2063285;28;20552;-69
2022/03/08 04:57:11;;;;;;;26.45;15.02;;;-1.80;99.90;;;;;;2063356;28;20022;-70
2022/03/08 04:58:12;;;;;;;25.67;14.55;;;-1.70;99.90;;;;;;2062701;28;20033;-69
2022/03/08 04:59:13;;;;;;;27.10;14.10;;;-1.70;99.90;;;;;;2062627;28;20478;-70
2022/03/08 05:00:14;;;;;;;26.60;14.88;;;-1.70;99.90;;;;;;2062841;28;20145;-71
2022/03/08 05:01:16;;;;;;;24.55;13.68;;;-1.80;99.90;;;;;;2070582;28;20040;-69
2022/03/08 05:02:16;;;;;;;26.77;14.25;;;-1.80;99.90;;;;;;2070770;28;20032;-70
2022/03/08 05:03:17;;;;;;;24.52;14.13;;;-1.80;99.90;;;;;;2062734;28;20030;-71
2022/03/08 05:04:18;;;;;;;25.05;14.40;;;-1.80;99.90;;;;;;2062643;28;20568;-70
2022/03/08 05:05:18;;;;;;;24.08;13.15;;;-1.80;99.90;;;;;;2063273;28;20033;-69
2022/03/08 05:06:19;;;;;;;24.90;13.95;;;-1.80;99.90;;;;;;2062563;28;20548;-69
2022/03/08 05:07:20;;;;;;;24.80;14.10;;;-1.80;99.90;;;;;;2054591;28;20023;-70
2022/03/08 05:08:20;;;;;;;23.38;13.90;;;-1.80;99.90;;;;;;2062384;28;20046;-69
2022/03/08 05:09:21;;;;;;;24.45;13.77;;;-1.80;99.90;;;;;;2062571;28;20037;-69
2022/03/08 05:10:21;;;;;;;24.25;13.63;;;-1.80;99.90;;;;;;2054080;28;20111;-69